Time;durP1;ratioP1;P1;durP2;ratioP2;P2;SDS_P1;SDS_P2;PMS_P1;PMS_P2;Temp;Humidity;BMP_temperature;BMP_pressure;BME280_temperature;BME280_humidity;BME280_pressure;Samples;Min_cycle;Max_cycle;Signal;HPM_P1;HPM_P2
2023/07/15 00:01:23;;;;;;;9.57;4.07;;;19.40;99.90;;;;;;5033121;28;20449;-78
2023/07/15 00:03:51;;;;;;;9.57;4.17;;;19.40;99.90;;;;;;5028787;28;20875;-78
2023/07/15 00:06:20;;;;;;;7.37;4.27;;;19.40;99.90;;;;;;5032174;28;20503;-78
2023/07/15 00:08:48;;;;;;;11.63;4.70;;;19.30;99.90;;;;;;5032160;28;20462;-78
2023/07/15 00:11:19;;;;;;;15.13;4.67;;;19.30;99.90;;;;;;5031662;28;20484;-78
2023/07/15 00:13:46;;;;;;;10.47;4.40;;;19.20;99.90;;;;;;5032196;28;20461;-78
2023/07/15 00:16:13;;;;;;;11.77;3.93;;;19.20;99.90;;;;;;5032388;28;20461;-78
2023/07/15 00:18:39;;;;;;;12.20;4.10;;;19.10;99.90;;;;;;5032342;28;20535;-78
2023/07/15 00:21:16;;;;;;;11.27;3.87;;;19.10;99.90;;;;;;5032157;28;20453;-78
2023/07/15 00:23:44;;;;;;;5.80;4.00;;;19.10;99.90;;;;;;5032327;28;20484;-78
2023/07/15 00:26:11;;;;;;;5.80;4.10;;;19.10;99.90;;;;;;5032142;28;20874;-78
2023/07/15 00:28:37;;;;;;;6.67;3.67;;;19.10;99.90;;;;;;5032137;28;20960;-78
2023/07/15 00:31:13;;;;;;;12.67;4.73;;;19.10;99.90;;;;;;5033377;28;20440;-78
2023/07/15 00:33:40;;;;;;;7.77;4.30;;;19.10;99.90;;;;;;5026984;28;21206;-78
2023/07/15 00:36:07;;;;;;;9.73;4.93;;;19.00;99.90;;;;;;5032506;28;20450;-78
2023/07/15 00:38:34;;;;;;;8.63;4.10;;;19.10;99.90;;;;;;5031955;28;20899;-78
2023/07/15 00:41:03;;;;;;;5.00;3.83;;;19.10;99.90;;;;;;5032013;28;20461;-78
2023/07/15 00:43:58;;;;;;;12.00;4.20;;;19.10;99.90;;;;;;5031583;28;20458;-78
2023/07/15 00:46:43;;;;;;;10.60;4.87;;;19.10;99.90;;;;;;5032091;28;20794;-78
2023/07/15 00:49:13;;;;;;;8.50;4.60;;;19.10;99.90;;;;;;5031700;28;20536;-78
2023/07/15 00:51:42;;;;;;;6.90;3.80;;;19.10;99.90;;;;;;5032516;28;20519;-78
2023/07/15 00:54:10;;;;;;;6.90;4.37;;;19.10;99.90;;;;;;5031933;28;20823;-78
2023/07/15 00:56:39;;;;;;;9.60;4.30;;;19.10;99.90;;;;;;5031281;28;20476;-78
2023/07/15 00:59:07;;;;;;;8.77;4.00;;;19.00;99.90;;;;;;5031287;28;21007;-78
2023/07/15 01:01:36;;;;;;;7.53;4.47;;;19.00;99.90;;;;;;5031729;28;20479;-78
2023/07/15 01:04:03;;;;;;;7.90;3.93;;;19.00;99.90;;;;;;5031830;28;20543;-78
2023/07/15 01:06:33;;;;;;;6.30;4.10;;;19.00;99.90;;;;;;5031275;28;20449;-78
2023/07/15 01:09:00;;;;;;;6.47;4.20;;;19.00;99.90;;;;;;5032170;28;20449;-78
2023/07/15 01:11:28;;;;;;;10.07;3.60;;;19.00;99.90;;;;;;5031850;28;20536;-78
2023/07/15 01:13:55;;;;;;;10.73;3.80;;;19.00;99.90;;;;;;5031406;28;20933;-77
2023/07/15 01:16:23;;;;;;;6.07;3.93;;;18.90;99.90;;;;;;5031361;28;20449;-78
2023/07/15 01:18:51;;;;;;;11.00;4.07;;;18.90;99.90;;;;;;5031414;28;20511;-78
2023/07/15 01:21:20;;;;;;;8.07;3.97;;;18.90;99.90;;;;;;5031202;28;20467;-78
2023/07/15 01:23:48;;;;;;;12.30;4.30;;;18.90;99.90;;;;;;5031108;28;20519;-78
2023/07/15 01:26:15;;;;;;;4.80;3.73;;;18.90;99.90;;;;;;5031377;28;20945;-78
2023/07/15 01:28:41;;;;;;;8.07;3.87;;;18.90;99.90;;;;;;5030941;28;20479;-78
2023/07/15 01:31:08;;;;;;;6.83;4.50;;;18.90;99.90;;;;;;5033785;28;20449;-78
2023/07/15 01:33:35;;;;;;;4.93;4.10;;;18.80;99.90;;;;;;5024161;28;20523;-78
2023/07/15 01:36:02;;;;;;;3.90;3.50;;;18.80;99.90;;;;;;5031411;28;20469;-78
2023/07/15 01:38:29;;;;;;;5.37;3.90;;;18.80;99.90;;;;;;5031060;28;20572;-78
2023/07/15 01:40:57;;;;;;;7.17;4.10;;;18.70;99.90;;;;;;5031102;28;20485;-78
2023/07/15 01:43:24;;;;;;;5.63;4.10;;;18.70;99.90;;;;;;5030416;28;20453;-78
2023/07/15 01:45:52;;;;;;;4.87;4.17;;;18.70;99.90;;;;;;5030565;28;20462;-79
2023/07/15 01:48:19;;;;;;;7.37;4.00;;;18.70;99.90;;;;;;5030980;28;20819;-78
2023/07/15 01:50:46;;;;;;;10.77;4.47;;;18.60;99.90;;;;;;5030646;28;20457;-78
2023/07/15 01:53:14;;;;;;;7.53;4.40;;;18.60;99.90;;;;;;5030424;28;20457;-78
2023/07/15 01:55:41;;;;;;;5.50;4.10;;;18.60;99.90;;;;;;5029808;28;20520;-78
2023/07/15 01:58:09;;;;;;;8.73;4.67;;;18.60;99.90;;;;;;5030345;28;20491;-78
2023/07/15 02:00:36;;;;;;;5.87;4.77;;;18.50;99.90;;;;;;5030020;28;20969;-78
2023/07/15 02:03:03;;;;;;;10.17;4.23;;;18.50;99.90;;;;;;5030916;28;20866;-79
2023/07/15 02:05:30;;;;;;;6.47;4.57;;;18.50;99.90;;;;;;5031087;28;20547;-78
2023/07/15 02:07:56;;;;;;;6.13;5.07;;;18.50;99.90;;;;;;5030267;28;20424;-78
2023/07/15 02:10:24;;;;;;;5.93;4.77;;;18.50;99.90;;;;;;5030877;28;20446;-78
2023/07/15 02:12:51;;;;;;;7.57;4.23;;;18.40;99.90;;;;;;5030942;28;20457;-78
2023/07/15 02:15:19;;;;;;;13.47;4.60;;;18.40;99.90;;;;;;5030497;28;20484;-78
2023/07/15 02:17:45;;;;;;;9.67;4.40;;;18.40;99.90;;;;;;5030024;28;20464;-79
2023/07/15 02:20:13;;;;;;;13.57;4.50;;;18.40;99.90;;;;;;5030153;28;20493;-79
2023/07/15 02:22:40;;;;;;;8.60;4.70;;;18.30;99.90;;;;;;5029991;28;20457;-78
2023/07/15 02:25:08;;;;;;;6.80;4.83;;;18.30;99.90;;;;;;5030320;28;20477;-78
2023/07/15 02:27:35;;;;;;;7.63;4.90;;;18.20;99.90;;;;;;5030093;28;20541;-79
2023/07/15 02:30:02;;;;;;;11.37;4.53;;;18.20;99.90;;;;;;5030095;28;20465;-78
2023/07/15 02:32:39;;;;;;;11.70;5.03;;;18.20;99.90;;;;;;5033431;28;20438;-78
2023/07/15 02:35:09;;;;;;;6.47;4.60;;;18.10;99.90;;;;;;5034886;28;20477;-78
2023/07/15 02:37:36;;;;;;;5.67;4.20;;;18.10;99.90;;;;;;5034968;28;20434;-78
2023/07/15 02:40:04;;;;;;;5.97;4.50;;;18.10;99.90;;;;;;5034454;28;20507;-78
2023/07/15 02:42:33;;;;;;;7.30;4.70;;;18.00;99.90;;;;;;5034877;28;20484;-79
2023/07/15 02:44:59;;;;;;;9.57;4.20;;;18.00;99.90;;;;;;5034245;28;20486;-78
2023/07/15 02:47:26;;;;;;;6.60;4.33;;;18.00;99.90;;;;;;5034179;28;20885;-79
2023/07/15 02:49:54;;;;;;;10.97;4.37;;;17.90;99.90;;;;;;5033587;28;20904;-78
2023/07/15 02:52:21;;;;;;;6.10;4.27;;;17.90;99.90;;;;;;5033898;28;20490;-78
2023/07/15 02:54:47;;;;;;;8.40;4.20;;;17.90;99.90;;;;;;5033873;28;20476;-78
2023/07/15 02:57:14;;;;;;;8.07;4.40;;;17.90;99.90;;;;;;5033794;28;20536;-79
2023/07/15 02:59:41;;;;;;;6.03;4.10;;;17.90;99.90;;;;;;5033389;28;20985;-79
2023/07/15 03:02:11;;;;;;;10.67;4.50;;;17.90;99.90;;;;;;5033928;28;20527;-79
2023/07/15 03:04:38;;;;;;;4.27;3.80;;;17.80;99.90;;;;;;5026504;28;20481;-79
2023/07/15 03:07:07;;;;;;;10.50;4.10;;;17.80;99.90;;;;;;5033067;28;20423;-79
2023/07/15 03:09:33;;;;;;;6.17;4.17;;;17.80;99.90;;;;;;5033769;28;20472;-79
2023/07/15 03:12:00;;;;;;;4.67;4.03;;;17.70;99.90;;;;;;5033848;28;20482;-78
2023/07/15 03:14:27;;;;;;;11.20;3.87;;;17.70;99.90;;;;;;5033322;28;20526;-79
2023/07/15 03:16:53;;;;;;;7.77;3.73;;;17.60;99.90;;;;;;5033879;28;20490;-78
2023/07/15 03:19:20;;;;;;;4.03;3.73;;;17.60;99.90;;;;;;5033717;28;20541;-79
2023/07/15 03:21:47;;;;;;;12.00;4.33;;;17.60;99.90;;;;;;5033700;28;20458;-78
2023/07/15 03:24:15;;;;;;;5.90;4.13;;;17.50;99.90;;;;;;5033362;28;20540;-79
2023/07/15 03:26:42;;;;;;;5.33;3.73;;;17.50;99.90;;;;;;5034360;28;20483;-78
2023/07/15 03:29:09;;;;;;;7.07;3.90;;;17.50;99.90;;;;;;5033779;28;20835;-79
2023/07/15 03:31:35;;;;;;;8.43;3.70;;;17.50;99.90;;;;;;5032832;28;20950;-79
2023/07/15 03:34:02;;;;;;;9.60;4.00;;;17.50;99.90;;;;;;5033621;28;20935;-78
2023/07/15 03:36:29;;;;;;;7.50;4.20;;;17.40;99.90;;;;;;5033480;28;20930;-79
2023/07/15 03:38:56;;;;;;;6.23;3.50;;;17.40;99.90;;;;;;5033606;28;20485;-79
2023/07/15 03:41:24;;;;;;;4.20;3.77;;;17.40;99.90;;;;;;5032810;28;20461;-78
2023/07/15 03:43:50;;;;;;;5.93;3.90;;;17.40;99.90;;;;;;5032781;28;20715;-79
2023/07/15 03:46:17;;;;;;;4.03;3.73;;;17.40;99.90;;;;;;5032114;28;20948;-78
2023/07/15 03:48:43;;;;;;;6.40;3.90;;;17.40;99.90;;;;;;5033219;28;20453;-79
2023/07/15 03:51:10;;;;;;;6.27;3.90;;;17.40;99.90;;;;;;5033360;28;20428;-80
2023/07/15 03:53:37;;;;;;;6.37;3.83;;;17.40;99.90;;;;;;5033008;28;20446;-79
2023/07/15 03:56:04;;;;;;;14.83;4.73;;;17.40;99.90;;;;;;5033234;28;20480;-78
2023/07/15 03:58:32;;;;;;;8.40;5.10;;;17.40;99.90;;;;;;5032893;28;20633;-78
2023/07/15 04:00:58;;;;;;;7.50;4.67;;;17.40;99.90;;;;;;5033280;28;20489;-78
2023/07/15 04:03:25;;;;;;;9.17;4.93;;;17.40;99.90;;;;;;5033132;28;20428;-79
2023/07/15 04:05:52;;;;;;;8.07;5.00;;;17.30;99.90;;;;;;5032645;28;20488;-79
2023/07/15 04:08:18;;;;;;;6.37;5.10;;;17.30;99.90;;;;;;5032038;28;20436;-79
2023/07/15 04:10:46;;;;;;;9.23;5.50;;;17.30;99.90;;;;;;5031178;28;20431;-79
2023/07/15 04:13:13;;;;;;;8.00;4.90;;;17.30;99.90;;;;;;5032673;28;20463;-79
2023/07/15 04:15:41;;;;;;;15.40;5.00;;;17.30;99.90;;;;;;5032120;28;20498;-79
2023/07/15 04:18:07;;;;;;;8.77;5.20;;;17.40;99.90;;;;;;5032343;28;20450;-79
2023/07/15 04:20:34;;;;;;;6.60;5.40;;;17.40;99.90;;;;;;5032293;28;20543;-79
2023/07/15 04:23:01;;;;;;;6.60;5.30;;;17.40;99.90;;;;;;5032615;28;20560;-80
2023/07/15 04:25:28;;;;;;;5.33;4.83;;;17.40;99.90;;;;;;5032367;28;20539;-79
2023/07/15 04:27:54;;;;;;;12.47;5.47;;;17.50;99.90;;;;;;5031564;28;20461;-79
2023/07/15 04:30:21;;;;;;;8.00;5.00;;;17.50;99.90;;;;;;5031708;28;20928;-79
2023/07/15 04:32:49;;;;;;;9.67;4.73;;;17.60;99.90;;;;;;5038885;28;20567;-79
2023/07/15 04:35:16;;;;;;;6.10;4.73;;;17.70;99.90;;;;;;5031537;28;20485;-79
2023/07/15 04:37:43;;;;;;;5.40;4.80;;;17.70;99.90;;;;;;5032754;28;20457;-72
2023/07/15 04:40:11;;;;;;;3.93;3.60;;;17.80;99.90;;;;;;5031795;28;20516;-75
2023/07/15 04:42:37;;;;;;;7.83;4.90;;;18.00;99.90;;;;;;5031931;28;20465;-73
2023/07/15 04:45:06;;;;;;;5.60;4.23;;;18.30;99.90;;;;;;5031416;28;20447;-75
2023/07/15 04:47:34;;;;;;;13.53;4.60;;;18.60;99.90;;;;;;5030744;28;20453;-72
2023/07/15 04:50:02;;;;;;;6.00;4.80;;;18.90;99.90;;;;;;5031465;28;20717;-73
2023/07/15 04:52:28;;;;;;;6.30;4.80;;;19.20;99.90;;;;;;5032100;28;20453;-72
2023/07/15 04:54:55;;;;;;;7.90;4.33;;;19.40;99.90;;;;;;5031526;28;20519;-72
2023/07/15 04:57:22;;;;;;;6.53;4.17;;;19.40;99.90;;;;;;5031696;28;20453;-72
2023/07/15 04:59:48;;;;;;;9.40;3.70;;;19.60;99.90;;;;;;5030892;28;20543;-72
2023/07/15 05:02:16;;;;;;;4.70;4.03;;;19.80;99.90;;;;;;5031730;28;20527;-73
2023/07/15 05:04:42;;;;;;;12.83;4.13;;;19.90;99.90;;;;;;5031547;28;20477;-72
2023/07/15 05:07:10;;;;;;;5.70;3.80;;;20.00;99.90;;;;;;5031793;28;20528;-72
2023/07/15 05:09:37;;;;;;;6.00;4.30;;;20.20;99.90;;;;;;5031281;28;20922;-72
2023/07/15 05:12:04;;;;;;;5.73;4.77;;;20.30;99.90;;;;;;5031875;28;20876;-72
2023/07/15 05:14:32;;;;;;;12.50;4.43;;;20.30;99.90;;;;;;5031274;28;20481;-71
2023/07/15 05:16:59;;;;;;;6.47;4.20;;;20.30;99.90;;;;;;5031362;28;20504;-72
2023/07/15 05:19:25;;;;;;;7.17;4.60;;;20.50;99.90;;;;;;5031224;28;20492;-72
2023/07/15 05:21:52;;;;;;;11.90;4.67;;;20.50;99.90;;;;;;5031342;28;20872;-73
2023/07/15 05:24:20;;;;;;;7.97;4.90;;;20.50;99.90;;;;;;5031708;28;21057;-71
2023/07/15 05:26:47;;;;;;;7.40;4.30;;;20.60;99.90;;;;;;5031010;28;20449;-72
2023/07/15 05:29:13;;;;;;;7.17;4.60;;;20.70;99.90;;;;;;5030981;28;20512;-71
2023/07/15 05:31:40;;;;;;;5.70;4.20;;;20.80;99.90;;;;;;5032971;28;20445;-71
2023/07/15 05:34:07;;;;;;;7.50;4.60;;;20.90;99.90;;;;;;5030976;28;20473;-71
2023/07/15 05:36:34;;;;;;;6.70;5.10;;;21.00;99.90;;;;;;5030923;28;20457;-71
2023/07/15 05:39:01;;;;;;;8.63;5.17;;;21.10;99.90;;;;;;5030962;28;20457;-71
2023/07/15 05:41:29;;;;;;;6.90;5.10;;;21.20;99.90;;;;;;5030025;28;20560;-71
2023/07/15 05:43:56;;;;;;;10.03;4.43;;;21.30;99.90;;;;;;5031050;28;20491;-71
2023/07/15 05:46:23;;;;;;;11.10;5.60;;;21.40;99.90;;;;;;5030621;28;20453;-71
2023/07/15 05:48:49;;;;;;;6.90;4.60;;;21.50;99.90;;;;;;5030782;28;20499;-70
2023/07/15 05:51:16;;;;;;;9.83;4.37;;;21.60;99.90;;;;;;5031203;28;20449;-72
2023/07/15 05:53:43;;;;;;;6.50;4.40;;;21.70;99.90;;;;;;5030779;28;20461;-71
2023/07/15 05:56:10;;;;;;;8.33;4.90;;;21.90;99.90;;;;;;5030619;28;20453;-71
2023/07/15 05:58:38;;;;;;;9.73;4.10;;;22.10;99.90;;;;;;5030478;28;20875;-71
2023/07/15 06:01:04;;;;;;;5.80;4.00;;;22.30;99.90;;;;;;5031915;28;20579;-70
2023/07/15 06:03:31;;;;;;;5.00;4.30;;;22.40;99.90;;;;;;5029616;28;20477;-71
2023/07/15 06:06:01;;;;;;;10.20;4.73;;;22.50;99.90;;;;;;5030736;28;21056;-70
2023/07/15 06:08:28;;;;;;;7.30;4.30;;;22.70;99.90;;;;;;5029573;28;20536;-71
2023/07/15 06:10:55;;;;;;;5.60;4.20;;;22.70;99.90;;;;;;5030665;28;20499;-72
2023/07/15 06:13:22;;;;;;;13.30;4.53;;;22.90;99.90;;;;;;5030423;28;20449;-71
2023/07/15 06:15:53;;;;;;;10.33;4.30;;;23.00;99.90;;;;;;5029985;28;21001;-71
2023/07/15 06:18:20;;;;;;;4.77;4.23;;;23.00;99.90;;;;;;5030668;28;20453;-71
2023/07/15 06:20:48;;;;;;;9.63;3.87;;;23.20;99.90;;;;;;5030809;28;20485;-70
2023/07/15 06:23:15;;;;;;;4.23;3.83;;;23.30;99.90;;;;;;5030960;28;20460;-70
2023/07/15 06:25:41;;;;;;;4.90;4.40;;;23.50;99.90;;;;;;5030484;28;20499;-70
2023/07/15 06:28:08;;;;;;;7.80;4.20;;;23.60;99.90;;;;;;5030024;28;20484;-72
2023/07/15 06:30:35;;;;;;;10.30;4.10;;;23.90;99.90;;;;;;5030716;28;20504;-71
2023/07/15 06:33:03;;;;;;;8.23;4.70;;;24.00;99.90;;;;;;5036462;28;20460;-70
2023/07/15 06:35:29;;;;;;;6.03;4.23;;;24.20;99.90;;;;;;5029738;28;20481;-71
2023/07/15 06:37:56;;;;;;;9.03;4.03;;;24.40;99.90;;;;;;5029555;28;20798;-71
2023/07/15 06:40:23;;;;;;;11.53;4.20;;;24.60;99.90;;;;;;5030045;28;21043;-72
2023/07/15 06:42:50;;;;;;;6.83;4.10;;;24.80;99.90;;;;;;5030024;28;20551;-71
2023/07/15 06:45:21;;;;;;;10.57;4.30;;;25.10;99.90;;;;;;5030174;28;20573;-71
2023/07/15 06:47:47;;;;;;;6.03;4.00;;;25.10;99.90;;;;;;5027907;28;20523;-72
2023/07/15 06:50:16;;;;;;;6.70;4.23;;;25.30;99.90;;;;;;5028183;28;20457;-71
2023/07/15 06:52:42;;;;;;;4.03;3.60;;;25.40;99.90;;;;;;5028651;28;20549;-71
2023/07/15 06:55:09;;;;;;;9.50;4.07;;;25.50;99.90;;;;;;5028264;28;20484;-71
2023/07/15 06:57:36;;;;;;;7.37;3.80;;;25.80;99.90;;;;;;5028304;28;20483;-71
2023/07/15 07:00:04;;;;;;;8.60;4.00;;;25.90;99.90;;;;;;5028249;28;20523;-71
2023/07/15 07:02:30;;;;;;;7.23;3.90;;;26.00;99.90;;;;;;5029032;28;20973;-71
2023/07/15 07:04:57;;;;;;;6.00;3.40;;;26.10;99.90;;;;;;5030113;28;20591;-71
2023/07/15 07:07:25;;;;;;;5.50;3.83;;;26.40;99.90;;;;;;5029884;28;20458;-72
2023/07/15 07:09:52;;;;;;;8.70;3.17;;;26.50;99.90;;;;;;5029209;28;20969;-72
2023/07/15 07:12:19;;;;;;;7.00;3.30;;;26.70;99.90;;;;;;5030210;28;20850;-71
2023/07/15 07:14:45;;;;;;;6.20;3.90;;;26.90;99.90;;;;;;5030333;28;20515;-72
2023/07/15 07:17:12;;;;;;;7.80;4.17;;;27.20;99.90;;;;;;5030171;28;20456;-72
2023/07/15 07:19:39;;;;;;;11.53;3.40;;;27.60;99.90;;;;;;5031840;28;20449;-72
2023/07/15 07:22:05;;;;;;;5.30;3.30;;;27.80;99.90;;;;;;5033471;28;20489;-72
2023/07/15 07:24:33;;;;;;;3.60;3.23;;;28.00;99.90;;;;;;5033595;28;20469;-72
2023/07/15 07:27:00;;;;;;;5.07;3.50;;;28.00;99.90;;;;;;5033711;28;20453;-72
2023/07/15 07:29:26;;;;;;;6.20;3.30;;;27.90;99.90;;;;;;5033277;28;20953;-73
2023/07/15 07:31:53;;;;;;;9.23;3.57;;;27.70;99.90;;;;;;5038624;28;20453;-72
2023/07/15 07:34:20;;;;;;;9.60;3.77;;;27.40;99.90;;;;;;5033270;28;20476;-72
2023/07/15 07:36:47;;;;;;;5.00;3.10;;;27.20;99.90;;;;;;5033612;28;20532;-72
2023/07/15 07:39:13;;;;;;;9.77;3.63;;;27.00;99.90;;;;;;5033267;28;20457;-72
2023/07/15 07:41:42;;;;;;;6.37;3.67;;;26.80;99.90;;;;;;5032195;28;20515;-71
2023/07/15 07:44:09;;;;;;;5.90;3.73;;;26.70;99.90;;;;;;5030308;28;20465;-71
2023/07/15 07:46:36;;;;;;;5.33;4.07;;;26.70;99.90;;;;;;5033119;28;21021;-72
2023/07/15 07:49:03;;;;;;;6.23;4.60;;;26.80;99.90;;;;;;5032897;28;20509;-71
2023/07/15 07:51:29;;;;;;;6.50;3.77;;;27.10;99.90;;;;;;5033716;28;20453;-71
2023/07/15 07:53:56;;;;;;;4.00;3.70;;;27.30;99.90;;;;;;5033260;28;20464;-71
2023/07/15 07:56:23;;;;;;;8.80;4.07;;;27.40;99.90;;;;;;5027489;28;20607;-71
2023/07/15 07:58:55;;;;;;;7.07;3.87;;;27.30;99.90;;;;;;5033057;28;20515;-71
2023/07/15 08:01:22;;;;;;;5.23;3.97;;;27.10;99.90;;;;;;5024028;28;20584;-71
2023/07/15 08:03:49;;;;;;;4.23;3.83;;;26.70;99.90;;;;;;5029400;28;20814;-72
2023/07/15 08:06:15;;;;;;;5.77;4.40;;;26.50;99.90;;;;;;5033139;28;20454;-71
2023/07/15 08:08:42;;;;;;;8.50;4.70;;;26.40;99.90;;;;;;5032753;28;20958;-71
2023/07/15 08:11:09;;;;;;;8.43;5.00;;;26.20;99.90;;;;;;5032836;28;20450;-72
2023/07/15 08:13:35;;;;;;;5.87;4.60;;;26.00;99.90;;;;;;5032358;28;20828;-71
2023/07/15 08:16:04;;;;;;;12.07;4.90;;;25.90;99.90;;;;;;5032102;28;20954;-72
2023/07/15 08:18:30;;;;;;;8.60;4.60;;;25.80;99.90;;;;;;5032717;28;20500;-72
2023/07/15 08:20:57;;;;;;;5.07;4.57;;;25.80;99.90;;;;;;5033069;28;20540;-72
2023/07/15 08:23:24;;;;;;;10.53;4.70;;;25.70;99.90;;;;;;5032938;28;20465;-71
2023/07/15 08:25:50;;;;;;;8.60;4.10;;;25.70;99.90;;;;;;5032493;28;20603;-71
2023/07/15 08:28:17;;;;;;;14.37;4.17;;;25.60;99.90;;;;;;5032535;28;20461;-72
2023/07/15 08:30:44;;;;;;;11.73;4.40;;;25.60;99.90;;;;;;5032032;28;20511;-71
2023/07/15 08:33:12;;;;;;;6.97;4.23;;;25.60;99.90;;;;;;5032556;28;20460;-71
2023/07/15 08:35:40;;;;;;;7.00;4.10;;;25.60;99.90;;;;;;5032600;28;20877;-72
2023/07/15 08:38:06;;;;;;;5.60;4.00;;;25.60;99.90;;;;;;5032584;28;21339;-70
2023/07/15 08:40:35;;;;;;;5.80;4.03;;;25.60;99.90;;;;;;5031983;28;20481;-71
2023/07/15 08:43:04;;;;;;;11.80;4.60;;;25.60;99.90;;;;;;5032386;28;20536;-72
2023/07/15 08:45:34;;;;;;;12.17;4.30;;;25.60;99.90;;;;;;5032011;28;20477;-72
2023/07/15 08:48:01;;;;;;;6.07;4.60;;;25.70;99.90;;;;;;5033156;28;20445;-72
2023/07/15 08:50:34;;;;;;;7.37;4.03;;;25.60;99.90;;;;;;5032762;28;20525;-72
2023/07/15 08:53:02;;;;;;;11.23;4.77;;;25.60;99.90;;;;;;5032091;28;20996;-72
2023/07/15 08:55:30;;;;;;;9.80;4.43;;;25.60;99.90;;;;;;5031146;28;20560;-73
2023/07/15 08:57:59;;;;;;;10.97;4.20;;;25.60;99.90;;;;;;5031284;28;21127;-72
2023/07/15 09:00:25;;;;;;;7.20;4.43;;;25.60;99.90;;;;;;5031731;28;20821;-73
2023/07/15 09:02:52;;;;;;;7.30;4.17;;;25.60;99.90;;;;;;5031998;28;20446;-73
2023/07/15 09:05:20;;;;;;;4.50;4.10;;;25.60;99.90;;;;;;5031295;28;20531;-73
2023/07/15 09:07:51;;;;;;;8.40;4.30;;;25.50;99.90;;;;;;5031599;28;20485;-73
2023/07/15 09:10:17;;;;;;;24.07;4.50;;;25.50;99.90;;;;;;5031741;28;20536;-73
2023/07/15 09:12:45;;;;;;;8.10;4.37;;;25.50;99.90;;;;;;5031809;28;20445;-73
2023/07/15 09:15:13;;;;;;;5.57;4.00;;;25.40;99.90;;;;;;5031571;28;20506;-73
2023/07/15 09:17:41;;;;;;;8.17;4.60;;;25.50;99.90;;;;;;5031654;28;20503;-73
2023/07/15 09:20:15;;;;;;;7.93;4.17;;;25.50;99.90;;;;;;5031366;28;20449;-73
2023/07/15 09:22:42;;;;;;;8.03;4.10;;;25.50;99.90;;;;;;5031532;28;20554;-72
2023/07/15 09:25:12;;;;;;;13.03;4.33;;;25.60;99.90;;;;;;5031611;28;20896;-75
2023/07/15 09:27:42;;;;;;;8.07;3.90;;;25.70;99.90;;;;;;5031611;28;20457;-74
2023/07/15 09:30:10;;;;;;;8.10;4.20;;;26.00;99.90;;;;;;5031013;28;20891;-75
2023/07/15 09:32:37;;;;;;;9.00;3.80;;;26.40;99.90;;;;;;5031997;28;20537;-74
2023/07/15 09:35:05;;;;;;;5.03;3.27;;;26.90;99.90;;;;;;5030832;28;20485;-73
2023/07/15 09:37:32;;;;;;;3.80;3.00;;;27.40;99.90;;;;;;5031556;28;20458;-73
2023/07/15 09:40:00;;;;;;;9.90;3.40;;;27.70;99.90;;;;;;5030860;28;20457;-72
2023/07/15 09:42:28;;;;;;;5.00;3.43;;;27.90;99.90;;;;;;5030633;28;21079;-72
2023/07/15 09:44:56;;;;;;;5.17;3.03;;;28.00;99.90;;;;;;5031211;28;21286;-73
2023/07/15 09:47:24;;;;;;;4.00;3.17;;;28.10;99.90;;;;;;5030833;28;20926;-73
2023/07/15 09:49:51;;;;;;;5.87;3.27;;;28.30;99.90;;;;;;5030434;28;20488;-72
2023/07/15 09:52:18;;;;;;;7.90;3.20;;;28.30;99.90;;;;;;5034879;28;20449;-74
2023/07/15 09:54:45;;;;;;;11.87;3.50;;;28.30;99.90;;;;;;5033924;28;20481;-73
2023/07/15 09:57:14;;;;;;;3.77;3.37;;;28.50;99.90;;;;;;5030562;28;20457;-73
2023/07/15 09:59:46;;;;;;;3.93;3.40;;;28.90;99.90;;;;;;5030844;28;20457;-72
2023/07/15 10:02:19;;;;;;;12.73;3.27;;;29.40;99.90;;;;;;5030966;28;20488;-73
2023/07/15 10:04:46;;;;;;;3.80;3.50;;;29.90;99.90;;;;;;5030768;28;20552;-72
2023/07/15 10:07:14;;;;;;;5.30;3.20;;;30.00;99.90;;;;;;5030965;28;20446;-72
2023/07/15 10:09:40;;;;;;;7.37;3.40;;;29.80;99.90;;;;;;5030130;28;20454;-72
2023/07/15 10:12:08;;;;;;;7.27;3.23;;;29.50;99.90;;;;;;5030718;28;20511;-72
2023/07/15 10:14:36;;;;;;;6.73;3.27;;;29.20;99.90;;;;;;5030733;28;20531;-72
2023/07/15 10:17:11;;;;;;;6.50;3.23;;;29.00;99.90;;;;;;5030473;28;20467;-72
2023/07/15 10:19:40;;;;;;;6.50;3.50;;;28.70;99.90;;;;;;5039135;28;20878;-71
2023/07/15 10:22:07;;;;;;;9.10;3.70;;;28.50;99.90;;;;;;5042235;28;20477;-72
2023/07/15 10:24:34;;;;;;;3.97;3.57;;;28.30;99.90;;;;;;5040192;28;21032;-72
2023/07/15 10:27:01;;;;;;;7.23;4.13;;;28.20;99.90;;;;;;5041309;28;20453;-72
2023/07/15 10:29:30;;;;;;;4.43;3.50;;;28.00;99.90;;;;;;5035593;28;20853;-74
2023/07/15 10:32:12;;;;;;;3.30;3.00;;;27.80;99.90;;;;;;5032347;28;20453;-72
2023/07/15 10:34:42;;;;;;;5.60;3.23;;;27.70;99.90;;;;;;5030542;28;20930;-72
2023/07/15 10:37:11;;;;;;;5.33;3.13;;;27.50;99.90;;;;;;5030351;28;20477;-71
2023/07/15 10:39:39;;;;;;;6.40;3.73;;;27.50;99.90;;;;;;5030700;28;20484;-72
2023/07/15 10:42:10;;;;;;;5.80;3.80;;;27.40;99.90;;;;;;5030155;28;20501;-72
2023/07/15 10:44:41;;;;;;;6.27;3.80;;;27.30;99.90;;;;;;5030548;28;20478;-72
2023/07/15 10:47:08;;;;;;;3.67;3.10;;;27.30;99.90;;;;;;5030304;28;20945;-72
2023/07/15 10:49:36;;;;;;;3.93;3.33;;;27.20;99.90;;;;;;5029832;28;20450;-72
2023/07/15 10:52:04;;;;;;;4.33;3.50;;;27.10;99.90;;;;;;5030453;28;20807;-72
2023/07/15 10:54:32;;;;;;;7.00;3.97;;;27.00;99.90;;;;;;5031586;28;20464;-72
2023/07/15 10:57:08;;;;;;;4.77;3.50;;;26.90;99.90;;;;;;5033017;28;20507;-72
2023/07/15 10:59:36;;;;;;;8.60;3.57;;;26.70;99.90;;;;;;5033806;28;20933;-72
2023/07/15 11:02:03;;;;;;;8.67;4.43;;;26.60;99.90;;;;;;5033106;28;20973;-72
2023/07/15 11:04:30;;;;;;;6.33;3.73;;;26.60;99.90;;;;;;5032573;28;20885;-72
2023/07/15 11:07:01;;;;;;;7.90;4.07;;;26.60;99.90;;;;;;5033753;28;20457;-72
2023/07/15 11:09:29;;;;;;;3.60;3.30;;;26.50;99.90;;;;;;5033372;28;20512;-72
2023/07/15 11:11:56;;;;;;;7.53;3.63;;;26.60;99.90;;;;;;5031253;28;20523;-73
2023/07/15 11:14:24;;;;;;;7.37;3.73;;;26.70;99.90;;;;;;5034029;28;20503;-73
2023/07/15 11:16:52;;;;;;;3.63;3.33;;;26.70;99.90;;;;;;5033082;28;20887;-72
2023/07/15 11:19:19;;;;;;;6.93;3.50;;;26.80;99.90;;;;;;5033842;28;20508;-71
2023/07/15 11:21:45;;;;;;;5.73;3.53;;;26.80;99.90;;;;;;5033676;28;20550;-71
2023/07/15 11:24:14;;;;;;;4.00;3.40;;;26.80;99.90;;;;;;5032937;28;20484;-71
2023/07/15 11:26:41;;;;;;;9.60;4.57;;;26.90;99.90;;;;;;5033033;28;20452;-71
2023/07/15 11:29:16;;;;;;;6.77;3.77;;;26.80;99.90;;;;;;5033420;28;20499;-72
2023/07/15 11:31:43;;;;;;;8.97;4.10;;;26.80;99.90;;;;;;5035605;28;20495;-74
2023/07/15 11:34:10;;;;;;;4.40;3.83;;;26.80;99.90;;;;;;5032222;28;20476;-72
2023/07/15 11:36:38;;;;;;;3.83;3.50;;;26.80;99.90;;;;;;5033346;28;20441;-73
2023/07/15 11:39:05;;;;;;;5.20;4.00;;;26.70;99.90;;;;;;5032940;28;20669;-73
2023/07/15 11:41:34;;;;;;;9.50;5.17;;;26.70;99.90;;;;;;5033220;28;20893;-73
2023/07/15 11:44:01;;;;;;;6.20;3.83;;;26.70;99.90;;;;;;5033047;28;20560;-73
2023/07/15 11:46:28;;;;;;;7.17;4.57;;;26.70;99.90;;;;;;5033314;28;20865;-72
2023/07/15 11:48:57;;;;;;;7.33;4.30;;;26.70;99.90;;;;;;5032249;28;20465;-72
2023/07/15 11:51:25;;;;;;;6.60;4.20;;;26.70;99.90;;;;;;5032851;28;20477;-74
2023/07/15 11:53:53;;;;;;;7.03;3.87;;;26.70;99.90;;;;;;5032539;28;20942;-73
2023/07/15 11:56:34;;;;;;;4.77;4.27;;;26.70;99.90;;;;;;5033065;28;20992;-71
2023/07/15 11:59:01;;;;;;;8.93;4.30;;;26.70;99.90;;;;;;5033101;28;20508;-72
2023/07/15 12:01:28;;;;;;;9.70;4.40;;;26.80;99.90;;;;;;5032589;28;20487;-72
2023/07/15 12:03:55;;;;;;;5.90;4.13;;;26.90;99.90;;;;;;5031285;28;20469;-72
2023/07/15 12:06:23;;;;;;;5.97;4.37;;;26.90;99.90;;;;;;5034932;28;20453;-72
2023/07/15 12:09:04;;;;;;;12.33;4.67;;;26.80;99.90;;;;;;5031961;28;20941;-73
2023/07/15 12:11:33;;;;;;;5.83;4.07;;;26.90;99.90;;;;;;5029457;28;20453;-72
2023/07/15 12:14:01;;;;;;;8.60;4.13;;;26.80;99.90;;;;;;5029154;28;20454;-72
2023/07/15 12:16:30;;;;;;;8.30;4.53;;;26.80;99.90;;;;;;5028388;28;20541;-73
2023/07/15 12:18:57;;;;;;;4.67;4.10;;;26.90;99.90;;;;;;5031353;28;20891;-72
2023/07/15 12:21:24;;;;;;;5.30;4.30;;;26.90;99.90;;;;;;5032509;28;20503;-72
2023/07/15 12:23:51;;;;;;;5.60;4.27;;;26.90;99.90;;;;;;5032580;28;20941;-72
2023/07/15 12:26:17;;;;;;;9.00;4.17;;;26.90;99.90;;;;;;5032424;28;20536;-73
2023/07/15 12:28:45;;;;;;;5.30;3.97;;;26.90;99.90;;;;;;5032109;28;20449;-73
2023/07/15 12:31:13;;;;;;;5.70;3.93;;;27.00;99.90;;;;;;5035450;28;20451;-72
2023/07/15 12:33:39;;;;;;;10.90;4.00;;;27.20;99.90;;;;;;5032403;28;20496;-72
2023/07/15 12:36:08;;;;;;;7.23;4.43;;;27.30;99.90;;;;;;5032182;28;20541;-73
2023/07/15 12:38:35;;;;;;;9.07;4.60;;;27.40;99.90;;;;;;5032205;28;20515;-73
2023/07/15 12:41:04;;;;;;;9.83;4.60;;;27.60;99.90;;;;;;5032355;28;20449;-73
2023/07/15 12:43:31;;;;;;;7.73;4.20;;;27.70;99.90;;;;;;5031890;28;20497;-72
2023/07/15 12:45:59;;;;;;;4.43;4.00;;;27.80;99.90;;;;;;5032307;28;20470;-71
2023/07/15 12:48:26;;;;;;;5.00;4.20;;;28.00;99.90;;;;;;5031686;28;20457;-70